createdAt,value
2018-02-11T00:00:26.218Z,2.20
2018-02-11T00:01:28.703Z,2.30
2018-02-11T00:02:31.203Z,2.30
2018-02-11T00:03:33.712Z,2.20
2018-02-11T00:04:36.246Z,2.30
2018-02-11T00:05:39.496Z,2.30
2018-02-11T00:06:42.132Z,2.30
2018-02-11T00:07:44.632Z,2.20
2018-02-11T00:08:47.141Z,2.30
2018-02-11T00:09:50.426Z,2.30
2018-02-11T00:10:52.902Z,2.30
2018-02-11T00:11:56.172Z,2.30
2018-02-11T00:12:58.670Z,2.30
2018-02-11T00:14:01.946Z,2.20
2018-02-11T00:15:04.469Z,2.30
2018-02-11T00:16:07.006Z,2.20
2018-02-11T00:17:10.256Z,2.30
2018-02-11T00:18:12.763Z,2.30
2018-02-11T00:19:15.998Z,2.30
2018-02-11T00:20:18.479Z,2.30
2018-02-11T00:21:20.960Z,2.30
2018-02-11T00:22:23.633Z,2.30
2018-02-11T00:23:26.140Z,2.40
2018-02-11T00:24:29.365Z,2.40
2018-02-11T00:25:31.872Z,2.40
2018-02-11T00:26:34.351Z,2.30
2018-02-11T00:27:37.603Z,2.40
2018-02-11T00:28:40.082Z,2.30
2018-02-11T00:29:42.584Z,2.30
2018-02-11T00:30:45.048Z,2.30
2018-02-11T00:31:48.309Z,2.40
2018-02-11T00:32:51.182Z,2.30
2018-02-11T00:33:53.665Z,2.30
2018-02-11T00:34:56.160Z,2.30
2018-02-11T00:35:58.668Z,2.00
2018-02-11T00:37:01.888Z,2.20
2018-02-11T00:38:09.286Z,2.20
2018-02-11T00:39:12.002Z,2.20
2018-02-11T00:40:14.487Z,2.20
2018-02-11T00:41:17.054Z,2.20
2018-02-11T00:42:19.528Z,2.20
2018-02-11T00:43:22.007Z,2.20
2018-02-11T00:44:24.575Z,2.10
2018-02-11T00:45:27.121Z,2.20
2018-02-11T00:46:30.367Z,2.20
2018-02-11T00:47:32.850Z,2.20
2018-02-11T00:48:35.354Z,2.20
2018-02-11T00:49:38.619Z,2.20
2018-02-11T00:50:41.124Z,2.30
2018-02-11T00:51:43.633Z,2.30
2018-02-11T00:52:46.107Z,2.30
2018-02-11T00:53:48.587Z,2.30
2018-02-11T00:54:51.842Z,2.30
2018-02-11T00:56:08.995Z,2.30
2018-02-11T00:57:11.452Z,2.30
2018-02-11T00:58:13.944Z,2.40
2018-02-11T00:59:16.411Z,2.40
2018-02-11T01:00:18.983Z,2.40
2018-02-11T01:01:21.514Z,2.40
2018-02-11T01:02:23.999Z,2.40
2018-02-11T01:03:26.541Z,2.40
2018-02-11T01:04:29.029Z,2.40
2018-02-11T01:05:31.546Z,2.40
2018-02-11T01:06:34.085Z,2.50
2018-02-11T01:07:36.593Z,2.40
2018-02-11T01:08:39.068Z,2.40
2018-02-11T01:09:41.542Z,2.40
2018-02-11T01:10:44.005Z,2.40
2018-02-11T01:11:46.533Z,2.40
2018-02-11T01:12:49.016Z,2.40
2018-02-11T01:13:51.491Z,2.40
2018-02-11T01:14:53.956Z,2.40
2018-02-11T01:15:56.436Z,2.50
2018-02-11T01:16:58.920Z,2.40
2018-02-11T01:18:01.404Z,2.40
2018-02-11T01:19:03.876Z,2.40
2018-02-11T01:20:07.145Z,2.40
2018-02-11T01:21:09.648Z,2.40
2018-02-11T01:22:12.899Z,2.40
2018-02-11T01:23:15.410Z,2.40
2018-02-11T01:24:17.910Z,2.40
2018-02-11T01:25:20.384Z,2.40
2018-02-11T01:26:22.848Z,2.40
2018-02-11T01:27:25.356Z,2.40
2018-02-11T01:28:27.852Z,2.50
2018-02-11T01:29:30.323Z,2.40
2018-02-11T01:30:33.569Z,2.40
2018-02-11T01:31:36.047Z,2.40
2018-02-11T01:32:38.555Z,2.40
2018-02-11T01:33:41.827Z,2.40
2018-02-11T01:34:45.425Z,2.40
2018-02-11T01:35:47.889Z,2.30
2018-02-11T01:36:50.372Z,2.30
2018-02-11T01:37:52.870Z,2.30
2018-02-11T01:38:55.355Z,2.30
2018-02-11T01:39:57.866Z,2.30
2018-02-11T01:41:00.369Z,2.30
2018-02-11T01:42:02.859Z,2.20
2018-02-11T01:43:05.353Z,2.20
2018-02-11T01:44:07.891Z,2.20
2018-02-11T01:45:10.386Z,2.20
2018-02-11T01:46:12.843Z,2.20
2018-02-11T01:47:15.319Z,2.20
2018-02-11T01:48:17.987Z,2.20
2018-02-11T01:49:20.457Z,2.20
2018-02-11T01:50:22.955Z,2.10
2018-02-11T01:51:25.663Z,2.10
2018-02-11T01:52:28.141Z,2.10
2018-02-11T01:53:31.407Z,2.10
2018-02-11T01:54:33.886Z,2.00
2018-02-11T01:55:36.375Z,2.00
2018-02-11T01:56:39.654Z,1.90
2018-02-11T01:57:42.909Z,1.90
2018-02-11T01:58:45.380Z,1.90
2018-02-11T01:59:47.863Z,1.90
2018-02-11T02:00:50.354Z,1.90
2018-02-11T02:01:53.671Z,1.90
2018-02-11T02:02:56.137Z,1.90
2018-02-11T02:03:58.628Z,1.90
2018-02-11T02:05:01.123Z,1.90
2018-02-11T02:06:03.592Z,1.90
2018-02-11T02:07:06.065Z,1.80
2018-02-11T02:08:08.572Z,1.80
2018-02-11T02:09:11.805Z,1.90
2018-02-11T02:10:14.313Z,1.80
2018-02-11T02:11:16.798Z,1.80
2018-02-11T02:12:19.328Z,1.90
2018-02-11T02:13:21.807Z,1.90
2018-02-11T02:14:24.312Z,1.80
2018-02-11T02:15:27.925Z,1.80
2018-02-11T02:16:30.403Z,1.70
2018-02-11T02:17:32.870Z,1.80
2018-02-11T02:18:35.341Z,1.70
2018-02-11T02:19:37.813Z,1.70
2018-02-11T02:20:40.336Z,1.70
2018-02-11T02:21:42.824Z,1.60
2018-02-11T02:22:46.089Z,1.70
2018-02-11T02:23:48.616Z,1.70
2018-02-11T02:24:51.102Z,1.60
2018-02-11T02:25:53.649Z,1.70
2018-02-11T02:26:56.197Z,1.70
2018-02-11T02:27:59.492Z,1.70
2018-02-11T02:29:02.013Z,1.70
2018-02-11T02:30:04.536Z,1.60
2018-02-11T02:31:07.034Z,1.60
2018-02-11T02:32:09.584Z,1.50
2018-02-11T02:33:12.893Z,1.60
2018-02-11T02:34:15.374Z,1.50
2018-02-11T02:35:17.853Z,1.50
2018-02-11T02:36:20.336Z,1.50
2018-02-11T02:37:23.280Z,1.50
2018-02-11T02:38:25.770Z,1.50
2018-02-11T02:39:28.275Z,1.60
2018-02-11T02:40:31.675Z,1.60
2018-02-11T02:41:34.150Z,1.60
2018-02-11T02:42:38.058Z,1.50
2018-02-11T02:43:41.372Z,1.50
2018-02-11T02:44:43.839Z,1.50
2018-02-11T02:45:46.316Z,1.60
2018-02-11T02:46:48.788Z,1.50
2018-02-11T02:47:51.992Z,1.50
2018-02-11T02:48:54.468Z,1.50
2018-02-11T02:49:56.959Z,1.50
2018-02-11T02:50:59.429Z,1.50
2018-02-11T02:52:01.898Z,1.50
2018-02-11T02:53:04.383Z,1.50
2018-02-11T02:54:06.871Z,1.60
2018-02-11T02:55:10.180Z,1.50
2018-02-11T02:56:12.702Z,1.50
2018-02-11T02:57:15.164Z,1.60
2018-02-11T02:58:17.660Z,1.60
2018-02-11T02:59:20.903Z,1.60
2018-02-11T03:00:23.373Z,1.60
2018-02-11T03:01:25.837Z,1.60
2018-02-11T03:02:28.298Z,1.60
2018-02-11T03:03:30.817Z,1.60
2018-02-11T03:04:33.340Z,1.60
2018-02-11T03:05:35.843Z,1.60
2018-02-11T03:06:39.539Z,1.70
2018-02-11T03:20:37.845Z,1.60
2018-02-11T03:21:40.304Z,1.70
2018-02-11T03:22:43.135Z,1.80
2018-02-11T03:23:45.606Z,1.80
2018-02-11T03:24:48.097Z,1.80
2018-02-11T03:25:51.354Z,1.90
2018-02-11T03:26:53.812Z,1.90
2018-02-11T03:27:56.289Z,1.90
2018-02-11T03:28:58.756Z,2.00
2018-02-11T03:30:01.312Z,2.00
2018-02-11T03:31:03.823Z,2.00
2018-02-11T03:32:06.290Z,2.00
2018-02-11T03:33:09.545Z,2.10
2018-02-11T03:34:12.030Z,2.00
2018-02-11T03:35:15.748Z,2.10
2018-02-11T03:36:18.304Z,2.00
2018-02-11T03:37:20.776Z,2.00
2018-02-11T03:38:23.250Z,2.00
2018-02-11T03:39:25.725Z,2.10
2018-02-11T03:40:28.219Z,2.00
2018-02-11T03:41:31.474Z,2.10
2018-02-11T03:42:33.945Z,2.10
2018-02-11T03:43:36.461Z,2.10
2018-02-11T03:44:38.936Z,2.10
2018-02-11T03:45:41.440Z,2.10
2018-02-11T03:46:43.912Z,2.10
2018-02-11T03:47:46.420Z,2.10
2018-02-11T03:48:48.921Z,2.20
2018-02-11T03:49:51.392Z,2.10
2018-02-11T03:50:53.892Z,2.20
2018-02-11T03:51:56.376Z,2.20
2018-02-11T03:52:58.873Z,2.20
2018-02-11T03:54:02.157Z,2.20
2018-02-11T03:55:05.415Z,2.20
2018-02-11T03:56:07.896Z,2.20
2018-02-11T03:57:10.396Z,2.20
2018-02-11T03:58:12.859Z,2.20
2018-02-11T03:59:16.115Z,2.30
2018-02-11T04:00:18.605Z,2.20
2018-02-11T04:01:21.077Z,2.30
2018-02-11T04:02:23.587Z,2.30
2018-02-11T04:03:26.073Z,2.30
2018-02-11T04:04:28.559Z,2.40
2018-02-11T04:05:31.063Z,2.30
2018-02-11T04:06:33.541Z,2.40
2018-02-11T04:07:36.076Z,2.40
2018-02-11T04:08:38.680Z,2.30
2018-02-11T04:09:41.170Z,2.30
2018-02-11T04:10:43.647Z,2.40
2018-02-11T04:11:46.158Z,2.40
2018-02-11T04:12:48.641Z,2.40
2018-02-11T04:13:51.146Z,2.50
2018-02-11T04:14:53.594Z,2.50
2018-02-11T04:15:56.083Z,2.50
2018-02-11T04:16:59.323Z,2.50
2018-02-11T04:18:01.817Z,2.50
2018-02-11T04:19:04.272Z,2.50
2018-02-11T04:20:06.750Z,2.50
2018-02-11T04:21:09.244Z,2.50
2018-02-11T04:22:11.720Z,2.50
2018-02-11T04:23:14.201Z,2.50
2018-02-11T04:24:17.651Z,2.50
2018-02-11T04:25:20.182Z,2.50
2018-02-11T04:26:22.677Z,2.50
2018-02-11T04:27:25.144Z,2.50
2018-02-11T04:28:27.674Z,2.50
2018-02-11T04:29:30.905Z,2.50
2018-02-11T04:30:33.434Z,2.50
2018-02-11T04:31:35.898Z,2.60
2018-02-11T04:32:39.261Z,2.50
2018-02-11T04:33:41.727Z,2.50
2018-02-11T04:34:45.008Z,2.50
2018-02-11T04:35:47.464Z,2.40
2018-02-11T04:36:49.927Z,2.40
2018-02-11T04:37:52.396Z,2.30
2018-02-11T04:38:54.885Z,2.30
2018-02-11T04:39:57.340Z,2.40
2018-02-11T04:40:59.826Z,2.40
2018-02-11T04:42:02.292Z,2.30
2018-02-11T04:43:04.776Z,2.30
2018-02-11T04:44:08.136Z,2.30
2018-02-11T04:45:10.628Z,2.30
2018-02-11T04:46:13.099Z,2.40
2018-02-11T04:47:15.594Z,2.40
2018-02-11T04:48:18.063Z,2.40
2018-02-11T04:49:21.344Z,2.40
2018-02-11T04:50:23.823Z,2.40
2018-02-11T04:51:26.418Z,2.50
2018-02-11T04:52:28.884Z,2.50
2018-02-11T04:53:31.349Z,2.50
2018-02-11T04:54:34.610Z,2.50
2018-02-11T04:55:38.895Z,2.50
2018-02-11T04:56:41.607Z,2.50
2018-02-11T04:57:44.864Z,2.50
2018-02-11T04:58:47.358Z,2.40
2018-02-11T04:59:49.860Z,2.50
2018-02-11T05:00:53.234Z,2.50
2018-02-11T05:01:56.719Z,2.50
2018-02-11T05:02:59.194Z,2.50
2018-02-11T05:04:04.993Z,2.40
2018-02-11T05:05:07.485Z,2.40
2018-02-11T05:06:09.975Z,2.40
2018-02-11T05:07:12.504Z,2.40
2018-02-11T05:08:15.717Z,2.50
2018-02-11T05:09:18.200Z,2.50
2018-02-11T05:10:20.691Z,2.50
2018-02-11T05:11:23.929Z,2.50
2018-02-11T05:12:26.408Z,2.50
2018-02-11T05:13:28.877Z,2.50
2018-02-11T05:14:31.366Z,2.50
2018-02-11T05:15:33.870Z,2.50
2018-02-11T05:16:36.334Z,2.50
2018-02-11T05:17:39.567Z,2.50
2018-02-11T05:18:42.944Z,2.60
2018-02-11T05:19:45.461Z,2.60
2018-02-11T05:20:47.953Z,2.60
2018-02-11T05:21:50.436Z,2.50
2018-02-11T05:22:52.906Z,2.50
2018-02-11T05:23:55.390Z,2.50
2018-02-11T05:24:57.849Z,2.60
2018-02-11T05:26:00.980Z,2.50
2018-02-11T05:27:03.487Z,2.60
2018-02-11T05:28:06.739Z,2.60
2018-02-11T05:29:09.210Z,2.60
2018-02-11T05:30:12.485Z,2.60
2018-02-11T05:31:14.965Z,2.60
2018-02-11T05:32:17.438Z,2.60
2018-02-11T05:33:19.920Z,2.60
2018-02-11T05:34:22.396Z,2.50
2018-02-11T05:35:24.865Z,2.50
2018-02-11T05:36:27.335Z,2.50
2018-02-11T05:37:29.816Z,2.50
2018-02-11T05:38:33.159Z,2.50
2018-02-11T05:39:35.636Z,2.50
2018-02-11T05:40:38.191Z,2.50
2018-02-11T05:41:40.682Z,2.50
2018-02-11T05:42:43.151Z,2.50
2018-02-11T05:43:45.637Z,2.40
2018-02-11T05:44:48.102Z,2.40
2018-02-11T05:45:50.572Z,2.40
2018-02-11T05:46:53.840Z,2.30
2018-02-11T05:47:56.306Z,2.30
2018-02-11T05:48:58.788Z,2.30
2018-02-11T05:50:01.280Z,2.20
2018-02-11T05:51:03.768Z,2.30
2018-02-11T05:52:07.017Z,2.30
2018-02-11T05:53:09.511Z,2.30
2018-02-11T05:54:12.021Z,2.30
2018-02-11T05:55:14.493Z,2.30
2018-02-11T05:56:16.965Z,2.30
2018-02-11T05:57:19.448Z,2.40
2018-02-11T05:58:21.931Z,2.40
2018-02-11T05:59:24.430Z,2.40
2018-02-11T06:00:26.892Z,2.40
2018-02-11T06:01:29.375Z,2.40
2018-02-11T06:02:31.847Z,2.40
2018-02-11T06:03:34.334Z,2.40
2018-02-11T06:04:37.611Z,2.40
2018-02-11T06:05:40.086Z,2.40
2018-02-11T06:06:43.453Z,2.40
2018-02-11T06:07:45.912Z,2.40
2018-02-11T06:08:48.386Z,2.40
2018-02-11T06:09:50.926Z,2.40
2018-02-11T06:10:53.473Z,2.40
2018-02-11T06:11:55.929Z,2.40
2018-02-11T06:12:59.169Z,2.40
2018-02-11T06:14:01.638Z,2.40
2018-02-11T06:15:04.146Z,2.40
2018-02-11T06:16:06.637Z,2.50
2018-02-11T06:17:09.864Z,2.50
2018-02-11T06:18:12.385Z,2.40
2018-02-11T06:19:15.638Z,2.50
2018-02-11T06:20:18.109Z,2.50
2018-02-11T06:21:20.607Z,2.50
2018-02-11T06:22:23.087Z,2.50
2018-02-11T06:23:26.346Z,2.50
2018-02-11T06:24:28.819Z,2.50
2018-02-11T06:25:32.793Z,2.50
2018-02-11T06:26:42.851Z,2.50
2018-02-11T06:27:45.312Z,2.50
2018-02-11T06:28:47.857Z,2.50
2018-02-11T06:29:50.382Z,2.50
2018-02-11T06:30:52.849Z,2.50
2018-02-11T06:31:55.317Z,2.50
2018-02-11T06:32:57.818Z,2.50
2018-02-11T06:34:01.058Z,2.50
2018-02-11T06:35:03.540Z,2.50
2018-02-11T06:36:06.018Z,2.50
2018-02-11T06:37:09.288Z,2.50
2018-02-11T06:38:12.082Z,2.50
2018-02-11T06:39:14.585Z,2.50
2018-02-11T06:40:18.734Z,2.50
2018-02-11T06:41:21.244Z,2.50
2018-02-11T06:42:23.708Z,2.60
2018-02-11T06:43:26.226Z,2.60
2018-02-11T06:44:28.706Z,2.60
2018-02-11T06:45:31.269Z,2.60
2018-02-11T06:46:33.771Z,2.60
2018-02-11T06:47:36.251Z,2.60
2018-02-11T06:48:38.776Z,2.60
2018-02-11T06:49:41.233Z,2.60
2018-02-11T06:50:44.507Z,2.70
2018-02-11T06:51:46.973Z,2.70
2018-02-11T06:52:49.458Z,2.60
2018-02-11T06:53:52.756Z,2.60
2018-02-11T06:54:55.260Z,2.70
2018-02-11T06:55:57.747Z,2.70
2018-02-11T06:57:00.289Z,2.70
2018-02-11T06:58:02.763Z,2.70
2018-02-11T06:59:05.244Z,2.70
2018-02-11T07:00:07.720Z,2.70
2018-02-11T07:01:10.614Z,2.70
2018-02-11T07:02:13.395Z,2.60
2018-02-11T07:03:15.871Z,2.70
2018-02-11T07:04:18.358Z,2.70
2018-02-11T07:05:20.864Z,2.70
2018-02-11T07:06:23.370Z,2.70
2018-02-11T07:07:25.847Z,2.70
2018-02-11T07:08:28.315Z,2.70
2018-02-11T07:09:30.776Z,2.60
2018-02-11T07:10:33.299Z,2.70
2018-02-11T07:11:36.598Z,2.70
2018-02-11T07:12:39.852Z,2.70
2018-02-11T07:13:42.348Z,2.70
2018-02-11T07:14:45.612Z,2.70
2018-02-11T07:15:48.097Z,2.60
2018-02-11T07:16:51.360Z,2.60
2018-02-11T07:17:53.842Z,2.70
2018-02-11T07:18:56.316Z,2.60
2018-02-11T07:19:59.567Z,2.70
2018-02-11T07:21:02.036Z,2.70
2018-02-11T07:22:04.539Z,2.70
2018-02-11T07:23:07.075Z,2.60
2018-02-11T07:24:10.471Z,2.60
2018-02-11T07:25:13.068Z,2.60
2018-02-11T07:26:15.571Z,2.60
2018-02-11T07:27:18.071Z,2.60
2018-02-11T07:28:20.532Z,2.60
2018-02-11T07:29:23.024Z,2.50
2018-02-11T07:30:25.512Z,2.50
2018-02-11T07:31:27.990Z,2.50
2018-02-11T07:32:30.485Z,2.50
2018-02-11T07:33:32.952Z,2.50
2018-02-11T07:34:36.261Z,2.50
2018-02-11T07:35:38.835Z,2.50
2018-02-11T07:36:42.131Z,2.50
2018-02-11T07:37:44.628Z,2.60
2018-02-11T07:38:47.108Z,2.50
2018-02-11T07:39:49.579Z,2.60
2018-02-11T07:40:52.060Z,2.60
2018-02-11T07:41:54.536Z,2.60
2018-02-11T07:42:57.015Z,2.60
2018-02-11T07:44:00.260Z,2.60
2018-02-11T07:45:02.787Z,2.60
2018-02-11T07:46:06.537Z,2.70
2018-02-11T07:47:09.084Z,2.70
2018-02-11T07:48:11.955Z,2.70
2018-02-11T07:49:14.435Z,2.70
2018-02-11T07:50:16.903Z,2.80
2018-02-11T07:51:19.892Z,2.70
2018-02-11T07:52:23.312Z,2.70
2018-02-11T07:53:25.808Z,2.70
2018-02-11T07:54:29.073Z,2.70
2018-02-11T07:55:31.538Z,2.70
2018-02-11T07:56:34.019Z,2.70
2018-02-11T07:57:36.488Z,2.80
2018-02-11T07:58:38.993Z,2.70
2018-02-11T07:59:41.470Z,2.80
2018-02-11T08:00:43.956Z,2.90
2018-02-11T08:01:46.432Z,2.90
2018-02-11T08:02:48.903Z,2.90
2018-02-11T08:03:51.413Z,2.90
2018-02-11T08:04:53.914Z,2.90
2018-02-11T08:05:57.938Z,3.00
2018-02-11T08:07:00.440Z,3.00
2018-02-11T08:08:02.925Z,3.00
2018-02-11T08:09:05.408Z,3.00
2018-02-11T08:10:08.260Z,3.00
2018-02-11T08:11:10.861Z,3.00
2018-02-11T08:12:13.451Z,3.00
2018-02-11T08:13:15.921Z,3.10
2018-02-11T08:14:19.152Z,3.20
2018-02-11T08:15:21.660Z,3.10
2018-02-11T08:16:24.132Z,3.20
2018-02-11T08:17:26.625Z,3.10
2018-02-11T08:18:29.891Z,3.10
2018-02-11T08:19:32.408Z,3.10
2018-02-11T08:20:34.933Z,3.10
2018-02-11T08:21:37.423Z,3.20
2018-02-11T08:22:40.706Z,3.10
2018-02-11T08:23:43.195Z,3.10
2018-02-11T08:24:45.711Z,3.10
2018-02-11T08:25:48.229Z,3.10
2018-02-11T08:26:51.460Z,3.10
2018-02-11T08:27:53.948Z,3.20
2018-02-11T08:28:59.300Z,3.20
2018-02-11T08:30:02.840Z,3.10
2018-02-11T08:31:05.307Z,3.20
2018-02-11T08:32:07.869Z,3.10
2018-02-11T08:33:10.477Z,3.20
2018-02-11T08:34:13.044Z,3.20
2018-02-11T08:35:15.530Z,3.20
2018-02-11T08:36:18.004Z,3.20
2018-02-11T08:37:20.469Z,3.20
2018-02-11T08:38:22.961Z,3.20
2018-02-11T08:39:25.510Z,3.30
2018-02-11T08:40:27.995Z,3.20
2018-02-11T08:41:30.476Z,3.20
2018-02-11T08:42:32.970Z,3.20
2018-02-11T08:43:35.455Z,3.30
2018-02-11T08:44:37.963Z,3.40
2018-02-11T08:45:40.495Z,3.30
2018-02-11T08:46:42.977Z,3.30
2018-02-11T09:00:40.516Z,3.30
2018-02-11T09:01:43.071Z,3.40
2018-02-11T09:02:45.539Z,3.40
2018-02-11T09:03:48.005Z,3.50
2018-02-11T09:04:50.479Z,3.50
2018-02-11T09:05:52.998Z,3.50
2018-02-11T09:06:56.287Z,3.60
2018-02-11T09:07:59.534Z,3.60
2018-02-11T09:09:02.077Z,3.60
2018-02-11T09:10:04.557Z,3.60
2018-02-11T09:11:07.076Z,3.60
2018-02-11T09:12:09.558Z,3.70
2018-02-11T09:13:12.309Z,3.70
2018-02-11T09:14:14.782Z,3.70
2018-02-11T09:15:17.546Z,3.70
2018-02-11T09:16:20.067Z,3.70
2018-02-11T09:17:23.317Z,3.90
2018-02-11T09:18:25.837Z,3.70
2018-02-11T09:19:29.210Z,3.70
2018-02-11T09:20:31.673Z,3.80
2018-02-11T09:21:34.826Z,3.80
2018-02-11T09:22:37.312Z,3.70
2018-02-11T09:23:39.845Z,3.80
2018-02-11T09:24:42.313Z,3.80
2018-02-11T09:25:44.800Z,3.90
2018-02-11T09:26:47.391Z,3.60
2018-02-11T09:27:49.878Z,3.90
2018-02-11T09:28:52.359Z,4.00
2018-02-11T09:29:55.651Z,3.90
2018-02-11T09:30:58.966Z,4.00
2018-02-11T09:32:01.466Z,4.00
2018-02-11T09:33:03.963Z,4.00
2018-02-11T09:34:06.505Z,4.00
2018-02-11T09:35:23.962Z,4.00
2018-02-11T09:36:26.746Z,4.10
2018-02-11T09:37:29.933Z,4.00
2018-02-11T09:39:41.105Z,4.00
2018-02-11T09:40:43.598Z,3.90
2018-02-11T09:41:46.853Z,4.10
2018-02-11T09:42:49.369Z,4.00
2018-02-11T09:43:53.892Z,4.00
2018-02-11T09:44:59.683Z,4.00
2018-02-11T09:46:03.579Z,4.10
2018-02-11T09:47:06.893Z,4.00
2018-02-11T09:48:09.429Z,4.00
2018-02-11T09:49:12.158Z,4.00
2018-02-11T09:50:15.436Z,4.00
2018-02-11T09:51:17.974Z,4.00
2018-02-11T09:52:20.629Z,4.00
2018-02-11T09:53:23.786Z,4.00
2018-02-11T09:54:27.163Z,4.10
2018-02-11T09:55:29.644Z,4.10
2018-02-11T09:56:32.896Z,4.20
2018-02-11T09:57:35.366Z,4.20
2018-02-11T09:58:37.922Z,4.20
2018-02-11T09:59:40.408Z,4.20
2018-02-11T10:00:44.534Z,4.30
2018-02-11T10:01:47.108Z,4.30
2018-02-11T10:02:50.062Z,4.40
2018-02-11T10:03:52.629Z,4.60
2018-02-11T10:04:55.225Z,4.70
2018-02-11T10:05:57.724Z,4.80
2018-02-11T10:07:00.214Z,4.90
2018-02-11T10:08:02.801Z,5.00
2018-02-11T10:09:05.813Z,5.10
2018-02-11T10:23:03.326Z,5.10
2018-02-11T10:24:05.840Z,5.50
2018-02-11T10:25:08.333Z,5.50
2018-02-11T10:26:10.982Z,5.50
2018-02-11T10:27:14.260Z,5.60
2018-02-11T10:28:18.480Z,5.70
2018-02-11T10:29:20.992Z,5.70
2018-02-11T10:30:24.977Z,5.70
2018-02-11T10:31:27.498Z,5.80
2018-02-11T10:32:32.675Z,5.70
2018-02-11T10:33:35.162Z,5.70
2018-02-11T10:34:37.674Z,5.70
2018-02-11T10:35:40.198Z,5.60
2018-02-11T10:36:42.795Z,5.60
2018-02-11T10:37:45.437Z,5.60
2018-02-11T10:38:51.778Z,5.70
2018-02-11T10:39:54.251Z,5.80
2018-02-11T10:40:56.762Z,5.80
2018-02-11T10:42:00.028Z,5.80
2018-02-11T10:43:03.195Z,6.00
2018-02-11T10:44:07.308Z,6.00
2018-02-11T10:45:10.047Z,5.90
2018-02-11T10:46:12.666Z,5.90
2018-02-11T10:47:15.214Z,5.90
2018-02-11T10:48:18.524Z,6.10
2018-02-11T10:49:21.032Z,6.10
2018-02-11T10:50:23.521Z,6.20
2018-02-11T10:51:26.014Z,6.20
2018-02-11T10:52:29.274Z,6.30
2018-02-11T10:53:32.343Z,6.30
2018-02-11T10:54:35.659Z,6.30
2018-02-11T10:55:38.253Z,6.30
2018-02-11T10:56:41.624Z,6.50
2018-02-11T10:57:44.122Z,6.50
2018-02-11T10:58:46.688Z,6.60
2018-02-11T10:59:49.187Z,6.60
2018-02-11T11:00:51.742Z,6.70
2018-02-11T11:01:55.194Z,6.80
2018-02-11T11:02:58.566Z,6.80
2018-02-11T11:04:01.908Z,7.00
2018-02-11T11:05:05.170Z,7.00
2018-02-11T11:06:07.655Z,7.00
2018-02-11T11:07:11.567Z,7.20
2018-02-11T11:08:15.394Z,7.20
2018-02-11T11:09:18.496Z,7.30
2018-02-11T11:10:20.987Z,7.30
2018-02-11T11:11:23.466Z,7.30
2018-02-11T11:12:26.028Z,7.40
2018-02-11T11:13:28.507Z,7.50
2018-02-11T11:14:31.125Z,7.50
2018-02-11T11:15:33.594Z,7.60
2018-02-11T11:16:36.139Z,7.70
2018-02-11T11:17:39.448Z,8.00
2018-02-11T11:18:42.759Z,8.10
2018-02-11T11:19:46.150Z,8.10
2018-02-11T11:20:48.649Z,8.10
2018-02-11T11:21:51.138Z,8.00
2018-02-11T11:22:53.639Z,8.00
2018-02-11T11:23:56.180Z,7.90
2018-02-11T11:24:58.676Z,7.90
2018-02-11T11:26:01.181Z,7.80
2018-02-11T11:27:03.792Z,7.80
2018-02-11T11:28:06.304Z,7.80
2018-02-11T11:29:08.800Z,7.90
2018-02-11T11:30:11.392Z,7.80
2018-02-11T11:31:14.905Z,7.90
2018-02-11T11:32:17.392Z,7.90
2018-02-11T11:33:20.680Z,8.00
2018-02-11T11:34:23.933Z,8.00
2018-02-11T11:35:27.254Z,8.00
2018-02-11T11:36:30.569Z,8.00
2018-02-11T11:37:33.110Z,7.90
2018-02-11T11:38:35.673Z,7.80
2018-02-11T11:39:38.190Z,7.80
2018-02-11T11:40:40.984Z,7.70
2018-02-11T11:41:43.494Z,7.70
2018-02-11T11:42:46.025Z,7.80
2018-02-11T11:43:48.543Z,7.90
2018-02-11T11:44:51.053Z,8.00
2018-02-11T11:45:53.602Z,8.00
2018-02-11T11:46:56.858Z,8.00
2018-02-11T11:47:59.345Z,7.90
2018-02-11T11:49:01.853Z,8.00
2018-02-11T11:50:04.344Z,7.90
2018-02-11T11:51:06.843Z,7.80
2018-02-11T11:52:10.608Z,7.80
2018-02-11T11:53:13.132Z,7.70
2018-02-11T11:54:15.623Z,7.60
2018-02-11T11:55:18.138Z,7.70
2018-02-11T11:56:20.620Z,7.70
2018-02-11T11:57:23.097Z,7.70
2018-02-11T11:58:25.595Z,7.80
2018-02-11T11:59:28.860Z,7.90
2018-02-11T12:00:32.308Z,7.90
2018-02-11T12:01:34.777Z,8.00
2018-02-11T12:02:38.194Z,7.90
2018-02-11T12:03:40.694Z,8.00
2018-02-11T12:04:43.202Z,8.00
2018-02-11T12:05:46.499Z,8.10
2018-02-11T12:06:49.005Z,8.20
2018-02-11T12:07:51.549Z,8.10
2018-02-11T12:08:54.041Z,8.20
2018-02-11T12:09:57.744Z,8.30
2018-02-11T12:11:00.223Z,8.40
2018-02-11T12:12:02.736Z,8.40
2018-02-11T12:13:05.236Z,8.40
2018-02-11T12:14:07.763Z,8.50
2018-02-11T12:15:10.482Z,8.50
2018-02-11T12:16:13.497Z,8.50
2018-02-11T12:17:16.016Z,8.60
2018-02-11T12:18:19.055Z,8.70
2018-02-11T12:19:21.535Z,8.70
2018-02-11T12:20:24.814Z,8.90
2018-02-11T12:21:28.889Z,8.70
2018-02-11T12:22:31.423Z,8.90
2018-02-11T12:23:34.706Z,9.00
2018-02-11T12:24:37.980Z,9.00
2018-02-11T12:25:40.552Z,9.00
2018-02-11T12:26:43.024Z,9.00
2018-02-11T12:27:46.308Z,8.90
2018-02-11T12:28:48.783Z,8.90
2018-02-11T12:29:52.075Z,8.80
2018-02-11T12:30:54.570Z,8.80
2018-02-11T12:31:57.079Z,8.80
2018-02-11T12:32:59.607Z,8.70
2018-02-11T12:34:02.920Z,8.50
2018-02-11T12:35:05.450Z,8.50
2018-02-11T12:36:07.990Z,8.40
2018-02-11T12:37:10.782Z,8.30
2018-02-11T12:38:13.455Z,8.20
2018-02-11T12:39:16.856Z,8.20
2018-02-11T12:40:19.366Z,8.10
2018-02-11T12:41:21.895Z,8.10
2018-02-11T12:42:24.415Z,8.00
2018-02-11T12:43:26.894Z,8.00
2018-02-11T12:44:29.438Z,7.90
2018-02-11T12:45:31.934Z,7.90
2018-02-11T12:46:34.526Z,7.80
2018-02-11T12:47:37.052Z,7.80
2018-02-11T12:48:39.562Z,7.70
2018-02-11T12:49:42.060Z,7.70
2018-02-11T12:50:44.577Z,7.70
2018-02-11T12:51:47.076Z,7.60
2018-02-11T12:52:50.387Z,7.60
2018-02-11T12:53:52.895Z,7.60
2018-02-11T12:54:55.384Z,7.70
2018-02-11T12:55:57.879Z,7.70
2018-02-11T12:57:01.473Z,7.80
2018-02-11T12:58:03.988Z,7.90
2018-02-11T12:59:06.495Z,7.90
2018-02-11T13:00:09.033Z,8.10
2018-02-11T13:01:12.756Z,8.20
2018-02-11T13:02:15.236Z,8.10
2018-02-11T13:03:17.739Z,8.20
2018-02-11T13:04:20.242Z,8.30
2018-02-11T13:05:23.511Z,8.40
2018-02-11T13:06:26.071Z,8.40
2018-02-11T13:07:28.548Z,8.50
2018-02-11T13:08:31.110Z,8.60
2018-02-11T13:09:33.648Z,8.50
2018-02-11T13:10:36.122Z,8.60
2018-02-11T13:11:38.636Z,8.70
2018-02-11T13:12:41.120Z,8.60
2018-02-11T13:13:43.642Z,8.60
2018-02-11T13:14:46.137Z,8.50
2018-02-11T13:15:48.691Z,8.40
2018-02-11T13:16:51.180Z,8.30
2018-02-11T13:17:53.693Z,8.00
2018-02-11T13:18:57.028Z,7.80
2018-02-11T13:19:59.561Z,7.80
2018-02-11T13:21:02.042Z,7.70
2018-02-11T13:22:04.539Z,7.50
2018-02-11T13:23:07.043Z,7.40
2018-02-11T13:24:09.544Z,7.40
2018-02-11T13:25:12.295Z,7.20
2018-02-11T13:26:15.910Z,7.00
2018-02-11T13:27:19.187Z,6.90
2018-02-11T13:28:22.463Z,6.80
2018-02-11T13:29:25.746Z,6.80
2018-02-11T13:30:28.286Z,6.80
2018-02-11T13:31:30.800Z,6.80
2018-02-11T13:32:34.064Z,6.70
2018-02-11T13:33:36.579Z,6.70
2018-02-11T13:34:39.637Z,6.90
2018-02-11T13:35:42.139Z,6.90
2018-02-11T13:36:44.627Z,7.00
2018-02-11T13:37:47.098Z,7.00
2018-02-11T13:38:49.610Z,7.00
2018-02-11T13:39:52.098Z,6.90
2018-02-11T13:40:55.407Z,6.90
2018-02-11T13:41:58.665Z,6.80
2018-02-11T13:43:01.146Z,6.80
2018-02-11T13:44:04.402Z,6.70
2018-02-11T13:45:06.917Z,6.80
2018-02-11T13:46:09.540Z,6.70
2018-02-11T13:47:12.319Z,6.70
2018-02-11T13:48:14.824Z,6.70
2018-02-11T13:49:17.801Z,6.70
2018-02-11T13:50:20.313Z,6.80
2018-02-11T13:51:22.887Z,6.80
2018-02-11T13:52:25.402Z,6.70
2018-02-11T13:53:27.884Z,6.70
2018-02-11T13:54:30.358Z,6.80
2018-02-11T13:55:32.836Z,6.70
2018-02-11T13:56:36.102Z,6.80
2018-02-11T13:57:38.614Z,6.80
2018-02-11T13:58:41.122Z,6.70
2018-02-11T13:59:43.618Z,6.70
2018-02-11T14:00:46.199Z,6.60
2018-02-11T14:01:48.708Z,6.60
2018-02-11T14:02:51.901Z,6.50
2018-02-11T14:03:54.373Z,6.50
2018-02-11T14:04:56.854Z,6.40
2018-02-11T14:05:59.323Z,6.40
2018-02-11T14:07:01.971Z,6.50
2018-02-11T14:08:04.474Z,6.50
2018-02-11T14:09:06.931Z,6.40
2018-02-11T14:10:09.637Z,6.40
2018-02-11T14:11:12.297Z,6.50
2018-02-11T14:12:15.584Z,6.50
2018-02-11T14:13:18.084Z,6.40
2018-02-11T14:14:20.598Z,6.40
2018-02-11T14:15:23.096Z,6.50
2018-02-11T14:16:25.574Z,6.40
2018-02-11T14:17:28.090Z,6.40
2018-02-11T14:18:31.354Z,6.40
2018-02-11T14:19:33.832Z,6.40
2018-02-11T14:20:36.342Z,6.40
2018-02-11T14:21:38.824Z,6.40
2018-02-11T14:22:41.336Z,6.40
2018-02-11T14:23:43.844Z,6.40
2018-02-11T14:24:46.338Z,6.40
2018-02-11T14:25:48.889Z,6.40
2018-02-11T14:26:51.463Z,6.30
2018-02-11T14:27:54.005Z,6.30
2018-02-11T14:28:56.560Z,6.40
2018-02-11T14:29:59.095Z,6.40
2018-02-11T14:31:01.658Z,6.40
2018-02-11T14:32:04.136Z,6.40
2018-02-11T14:33:06.669Z,6.40
2018-02-11T14:34:09.192Z,6.30
2018-02-11T14:35:11.938Z,6.30